Time;durP1;ratioP1;P1;durP2;ratioP2;P2;SDS_P1;SDS_P2;PMS_P1;PMS_P2;Temp;Humidity;BMP_temperature;BMP_pressure;BME280_temperature;BME280_humidity;BME280_pressure;Samples;Min_cycle;Max_cycle;Signal;HPM_P1;HPM_P2
2022/07/18 00:00:06;;;;;;;6.40;4.65;;;18.60;65.50;;;;;;5070504;28;20565;-61
2022/07/18 00:02:32;;;;;;;6.35;4.80;;;18.50;65.80;;;;;;5073417;28;20020;-61
2022/07/18 00:04:57;;;;;;;7.95;5.55;;;18.50;66.10;;;;;;5058067;28;20031;-61
2022/07/18 00:07:23;;;;;;;7.68;5.47;;;18.50;66.50;;;;;;5054975;28;20508;-61
2022/07/18 00:09:49;;;;;;;6.82;5.13;;;18.50;66.80;;;;;;5054671;28;20027;-61
2022/07/18 00:12:14;;;;;;;7.22;4.82;;;18.40;67.00;;;;;;5054174;28;20021;-61
2022/07/18 00:14:40;;;;;;;8.07;5.63;;;18.30;67.30;;;;;;5054493;28;20031;-61
2022/07/18 00:17:07;;;;;;;6.72;5.07;;;18.20;67.60;;;;;;5058201;28;20028;-61
2022/07/18 00:19:32;;;;;;;7.30;5.57;;;18.20;67.80;;;;;;5072656;28;20387;-61
2022/07/18 00:21:58;;;;;;;7.65;5.32;;;18.10;68.00;;;;;;5073656;28;20499;-61
2022/07/18 00:24:24;;;;;;;6.75;4.55;;;18.10;68.20;;;;;;5073232;28;20546;-61
2022/07/18 00:26:49;;;;;;;6.75;4.85;;;18.10;68.30;;;;;;5071493;28;20025;-61
2022/07/18 00:29:15;;;;;;;6.45;4.80;;;18.00;68.60;;;;;;5056154;28;20365;-61
2022/07/18 00:31:40;;;;;;;6.75;4.50;;;17.90;68.90;;;;;;5058437;28;20439;-61
2022/07/18 00:34:06;;;;;;;8.15;4.60;;;17.90;69.40;;;;;;5068901;28;20039;-62
2022/07/18 00:36:32;;;;;;;5.80;4.32;;;17.80;69.60;;;;;;5072859;28;20020;-61
2022/07/18 00:38:58;;;;;;;6.80;4.20;;;17.70;70.00;;;;;;5072994;28;20024;-61
2022/07/18 00:41:25;;;;;;;5.85;4.20;;;17.70;70.30;;;;;;5076529;28;20021;-61
2022/07/18 00:43:51;;;;;;;6.18;3.85;;;17.70;70.50;;;;;;5061587;28;20062;-61
2022/07/18 00:46:23;;;;;;;6.40;4.10;;;17.60;70.80;;;;;;5072630;28;20032;-61
2022/07/18 00:48:50;;;;;;;5.18;3.78;;;17.60;71.10;;;;;;5062310;28;20362;-61
2022/07/18 00:51:16;;;;;;;5.50;4.10;;;17.60;71.30;;;;;;5072159;28;20100;-61
2022/07/18 00:53:42;;;;;;;6.13;3.78;;;17.50;71.40;;;;;;5053617;28;20024;-61
2022/07/18 00:56:09;;;;;;;5.03;3.85;;;17.50;71.70;;;;;;5054149;28;20036;-61
2022/07/18 00:58:34;;;;;;;5.47;3.75;;;17.50;72.00;;;;;;5053498;28;20047;-61
2022/07/18 01:03:44;;;;;;;5.95;3.42;;;17.40;72.50;;;;;;5053476;28;20147;-61
2022/07/18 01:06:10;;;;;;;4.82;3.38;;;17.40;72.70;;;;;;5065089;28;20036;-61
2022/07/18 01:08:37;;;;;;;5.18;3.05;;;17.30;72.90;;;;;;5062803;28;20017;-61
2022/07/18 01:11:03;;;;;;;5.53;3.60;;;17.30;73.20;;;;;;5071159;28;20494;-61
2022/07/18 01:13:28;;;;;;;6.20;3.58;;;17.30;73.40;;;;;;5054348;28;20017;-61
2022/07/18 01:15:54;;;;;;;4.55;3.53;;;17.20;73.60;;;;;;5071763;28;20380;-61
2022/07/18 01:18:19;;;;;;;6.32;3.55;;;17.20;73.80;;;;;;5069990;28;20036;-61
2022/07/18 01:20:45;;;;;;;4.75;3.20;;;17.20;74.00;;;;;;5056904;28;20025;-61
2022/07/18 01:23:10;;;;;;;7.43;3.78;;;17.10;74.10;;;;;;5054707;28;20539;-61
2022/07/18 01:25:36;;;;;;;5.93;3.72;;;17.20;74.30;;;;;;5058552;28;20029;-61
2022/07/18 01:28:02;;;;;;;4.30;3.17;;;17.10;74.30;;;;;;5063235;28;20029;-61
2022/07/18 01:30:27;;;;;;;6.45;3.15;;;17.20;74.50;;;;;;5065212;28;20028;-61
2022/07/18 01:33:02;;;;;;;5.05;3.63;;;17.10;74.60;;;;;;5052442;28;20029;-61
2022/07/18 01:35:28;;;;;;;6.63;3.70;;;17.10;74.70;;;;;;5080195;28;20021;-61
2022/07/18 01:37:56;;;;;;;5.90;3.35;;;17.10;74.80;;;;;;5072448;28;20051;-61
2022/07/18 01:40:23;;;;;;;4.30;2.97;;;17.10;74.90;;;;;;5072029;28;20025;-61
2022/07/18 01:42:49;;;;;;;7.25;3.42;;;17.00;74.90;;;;;;5067447;28;20079;-61
2022/07/18 01:45:15;;;;;;;6.07;2.90;;;17.00;75.10;;;;;;5061313;28;20032;-61
2022/07/18 01:47:41;;;;;;;5.60;3.50;;;17.00;75.30;;;;;;5067041;28;20025;-61
2022/07/18 01:50:08;;;;;;;5.10;3.33;;;17.00;75.40;;;;;;5071231;28;20088;-61
2022/07/18 01:52:34;;;;;;;8.13;3.22;;;16.90;75.50;;;;;;5067190;28;20013;-61
2022/07/18 01:55:00;;;;;;;5.57;3.42;;;16.90;75.60;;;;;;5080945;28;20027;-61
2022/07/18 01:57:26;;;;;;;7.72;3.63;;;16.90;75.80;;;;;;5074326;28;20430;-61
2022/07/18 01:59:51;;;;;;;5.03;3.53;;;16.80;75.90;;;;;;5062655;28;20039;-61
2022/07/18 02:02:17;;;;;;;4.20;3.20;;;16.80;76.00;;;;;;5076010;28;20443;-61
2022/07/18 02:05:00;;;;;;;5.63;3.55;;;16.80;76.20;;;;;;5059876;28;20029;-61
2022/07/18 02:07:35;;;;;;;6.55;3.75;;;16.70;76.50;;;;;;5068791;28;20020;-61
2022/07/18 02:10:06;;;;;;;5.28;3.78;;;16.70;76.90;;;;;;5056763;28;20020;-62
2022/07/18 02:12:31;;;;;;;5.28;3.47;;;16.60;77.10;;;;;;5079324;28;20013;-61
2022/07/18 02:18:16;;;;;;;5.50;3.45;;;16.60;78.30;;;;;;5057008;28;20124;-61
2022/07/18 02:20:42;;;;;;;5.78;4.05;;;16.50;78.00;;;;;;5055788;28;20108;-61
2022/07/18 02:23:07;;;;;;;5.78;4.10;;;16.50;78.20;;;;;;5057098;28;20033;-61
2022/07/18 02:25:34;;;;;;;4.90;3.47;;;16.50;78.40;;;;;;5068597;28;20025;-61
2022/07/18 02:27:59;;;;;;;6.60;4.50;;;16.50;78.70;;;;;;5067202;28;20021;-61
2022/07/18 02:30:25;;;;;;;4.97;3.58;;;16.50;78.80;;;;;;5072876;28;20021;-61
2022/07/18 02:32:50;;;;;;;7.50;4.25;;;16.40;78.90;;;;;;5064928;28;20044;-61
2022/07/18 02:35:16;;;;;;;5.95;3.90;;;16.40;79.00;;;;;;5074933;28;20048;-61
2022/07/18 02:37:43;;;;;;;5.18;3.47;;;16.40;79.10;;;;;;5075147;28;20028;-61
2022/07/18 02:40:11;;;;;;;4.63;3.75;;;16.30;79.20;;;;;;5072252;28;20480;-61
2022/07/18 02:42:37;;;;;;;4.57;3.45;;;16.30;79.30;;;;;;5080972;28;20042;-61
2022/07/18 02:45:04;;;;;;;5.45;4.03;;;16.30;79.30;;;;;;5073367;28;20027;-61
2022/07/18 02:47:30;;;;;;;5.65;3.50;;;16.30;80.10;;;;;;5072490;28;20035;-62
2022/07/18 02:49:55;;;;;;;5.25;3.53;;;16.30;79.70;;;;;;5057230;28;20381;-61
2022/07/18 02:52:21;;;;;;;4.95;3.30;;;16.30;80.00;;;;;;5060102;28;20052;-61
2022/07/18 02:54:47;;;;;;;5.32;3.53;;;16.20;80.20;;;;;;5067207;28;20103;-61
2022/07/18 02:57:12;;;;;;;5.95;3.72;;;16.20;80.50;;;;;;5059564;28;20043;-61
2022/07/18 02:59:38;;;;;;;6.28;3.78;;;16.20;80.70;;;;;;5057251;28;20061;-61
2022/07/18 03:02:03;;;;;;;6.43;3.45;;;16.10;81.00;;;;;;5059157;28;20028;-61
2022/07/18 03:04:29;;;;;;;4.75;3.17;;;16.10;81.20;;;;;;5056806;28;20037;-61
2022/07/18 03:06:55;;;;;;;4.45;3.35;;;16.10;81.30;;;;;;5060222;28;20020;-61
2022/07/18 03:09:20;;;;;;;5.30;3.75;;;16.00;81.40;;;;;;5057695;28;20092;-61
2022/07/18 03:11:46;;;;;;;5.78;3.42;;;16.00;81.50;;;;;;5060587;28;20066;-61
2022/07/18 03:14:12;;;;;;;4.65;3.22;;;16.00;81.50;;;;;;5057547;28;20021;-61
2022/07/18 03:16:38;;;;;;;5.00;3.28;;;16.00;81.60;;;;;;5061010;28;20036;-61
2022/07/18 03:19:03;;;;;;;4.93;3.20;;;16.00;81.70;;;;;;5065967;28;20021;-61
2022/07/18 03:21:29;;;;;;;5.85;3.60;;;15.90;81.80;;;;;;5060402;28;20027;-61
2022/07/18 03:23:55;;;;;;;5.65;3.65;;;15.90;82.00;;;;;;5056809;28;20384;-61
2022/07/18 03:26:21;;;;;;;4.28;3.20;;;15.90;82.20;;;;;;5079931;28;20468;-61
2022/07/18 03:28:46;;;;;;;5.88;3.45;;;15.90;82.40;;;;;;5070884;28;20075;-61
2022/07/18 03:31:12;;;;;;;5.93;3.50;;;15.90;82.50;;;;;;5074673;28;20436;-61
2022/07/18 03:33:38;;;;;;;6.05;3.17;;;15.80;82.60;;;;;;5068362;28;20479;-61
2022/07/18 03:36:05;;;;;;;5.45;3.50;;;15.80;82.70;;;;;;5074062;28;20047;-61
2022/07/18 03:38:31;;;;;;;6.20;3.40;;;15.80;82.80;;;;;;5055659;28;20422;-61
2022/07/18 03:40:56;;;;;;;5.55;3.50;;;15.80;82.90;;;;;;5065387;28;20156;-61
2022/07/18 03:43:22;;;;;;;4.38;3.03;;;15.80;83.00;;;;;;5054631;28;20504;-61
2022/07/18 03:45:47;;;;;;;3.90;2.90;;;15.80;83.00;;;;;;5078510;28;20038;-61
2022/07/18 03:48:14;;;;;;;5.28;2.95;;;15.70;83.20;;;;;;5054475;28;20071;-61
2022/07/18 03:50:39;;;;;;;4.13;2.95;;;15.70;83.30;;;;;;5054355;28;20029;-61
2022/07/18 03:53:05;;;;;;;4.63;2.95;;;15.70;83.60;;;;;;5068937;28;20021;-60
2022/07/18 03:55:30;;;;;;;5.13;3.20;;;15.70;83.90;;;;;;5067226;28;20028;-61
2022/07/18 03:58:19;;;;;;;5.65;2.58;;;15.70;84.10;;;;;;5053820;28;20048;-61
2022/07/18 04:00:44;;;;;;;6.72;3.50;;;15.70;84.30;;;;;;5056335;28;20500;-61
2022/07/18 04:03:10;;;;;;;4.57;3.03;;;15.70;84.50;;;;;;5055898;28;20039;-61
2022/07/18 04:05:35;;;;;;;5.70;3.80;;;15.70;84.70;;;;;;5068098;28;20078;-61
2022/07/18 04:08:01;;;;;;;6.40;3.67;;;15.70;84.90;;;;;;5075912;28;20366;-61
2022/07/18 04:10:26;;;;;;;6.40;3.80;;;15.70;84.90;;;;;;5056175;28;20021;-61
2022/07/18 04:12:54;;;;;;;5.15;3.60;;;15.60;85.00;;;;;;5055249;28;20029;-61
2022/07/18 04:15:21;;;;;;;5.25;3.45;;;15.70;85.30;;;;;;5068626;28;20020;-61
2022/07/18 04:17:47;;;;;;;5.07;3.75;;;15.70;85.50;;;;;;5076242;28;20021;-61
2022/07/18 04:20:14;;;;;;;5.28;3.35;;;15.70;85.70;;;;;;5057557;28;20024;-61
2022/07/18 04:22:53;;;;;;;6.05;3.67;;;15.70;85.90;;;;;;5055365;28;20478;-61
2022/07/18 04:25:20;;;;;;;8.18;3.85;;;15.70;86.10;;;;;;5068051;28;20025;-61
2022/07/18 04:27:47;;;;;;;8.10;3.30;;;15.70;86.20;;;;;;5088495;28;20032;-61
2022/07/18 04:30:13;;;;;;;5.07;3.33;;;15.70;86.30;;;;;;5072775;28;20025;-61
2022/07/18 04:32:41;;;;;;;6.07;3.75;;;15.70;86.40;;;;;;5073123;28;20083;-61
2022/07/18 04:35:07;;;;;;;4.68;3.15;;;15.80;86.50;;;;;;5072449;28;20507;-61
2022/07/18 04:37:33;;;;;;;3.90;3.10;;;15.80;86.60;;;;;;5071584;28;20024;-61
2022/07/18 04:39:59;;;;;;;5.60;3.38;;;15.70;86.70;;;;;;5072498;28;20025;-61
2022/07/18 04:42:25;;;;;;;7.47;3.45;;;15.80;87.00;;;;;;5073000;28;20039;-61
2022/07/18 04:44:50;;;;;;;5.55;3.17;;;15.80;87.20;;;;;;5063930;28;20024;-61
2022/07/18 04:47:34;;;;;;;;;;;;;;;;;;;;;
2022/07/18 04:50:00;;;;;;;5.35;3.70;;;15.80;87.50;;;;;;5056440;28;20023;-61
2022/07/18 04:52:26;;;;;;;4.13;3.15;;;15.80;87.60;;;;;;5056705;28;20452;-61
2022/07/18 04:54:51;;;;;;;5.95;3.80;;;15.90;87.60;;;;;;5069256;28;20071;-61
2022/07/18 04:57:17;;;;;;;5.03;3.30;;;15.90;87.70;;;;;;5058316;28;20025;-61
2022/07/18 04:59:45;;;;;;;4.75;2.80;;;15.90;87.80;;;;;;5068359;28;20120;-61
2022/07/18 05:02:11;;;;;;;3.58;2.75;;;16.00;87.80;;;;;;5059370;28;20079;-61
2022/07/18 05:04:38;;;;;;;4.15;2.60;;;16.00;87.60;;;;;;5064040;28;20071;-61
2022/07/18 05:07:04;;;;;;;2.72;2.22;;;16.10;87.50;;;;;;5069147;28;20476;-61
2022/07/18 05:09:30;;;;;;;4.28;2.58;;;16.10;87.30;;;;;;5067463;28;20048;-61
2022/07/18 05:11:56;;;;;;;6.53;2.40;;;16.10;87.10;;;;;;5060656;28;20365;-61
2022/07/18 05:14:22;;;;;;;5.75;2.78;;;16.20;87.20;;;;;;5059668;28;20091;-61
2022/07/18 05:16:48;;;;;;;6.65;2.72;;;16.20;87.30;;;;;;5058866;28;20049;-61
2022/07/18 05:19:15;;;;;;;6.07;3.25;;;16.30;87.10;;;;;;5058556;28;20021;-61
2022/07/18 05:21:42;;;;;;;6.15;4.07;;;16.30;86.10;;;;;;5059152;28;20488;-61
2022/07/18 05:24:07;;;;;;;8.27;4.22;;;16.40;84.80;;;;;;5068532;28;20040;-61
2022/07/18 05:26:33;;;;;;;8.38;3.50;;;16.50;83.40;;;;;;5070374;28;20024;-61
2022/07/18 05:28:59;;;;;;;9.15;3.75;;;16.60;82.70;;;;;;5057485;28;20017;-61
2022/07/18 05:31:25;;;;;;;7.78;3.72;;;16.70;81.50;;;;;;5071256;28;20027;-61
2022/07/18 05:33:50;;;;;;;10.05;4.07;;;16.80;80.90;;;;;;5071112;28;20122;-61
2022/07/18 05:36:16;;;;;;;9.07;3.97;;;16.90;80.40;;;;;;5071539;28;20028;-61
2022/07/18 05:38:41;;;;;;;6.47;3.63;;;17.00;79.80;;;;;;5070733;28;20460;-61
2022/07/18 05:41:07;;;;;;;8.90;3.88;;;17.10;79.20;;;;;;5071561;28;20535;-61
2022/07/18 05:43:32;;;;;;;7.82;3.63;;;17.20;78.90;;;;;;5071304;28;20119;-61
2022/07/18 05:45:58;;;;;;;7.78;3.70;;;17.20;78.50;;;;;;5083485;28;20043;-61
2022/07/18 05:48:28;;;;;;;5.53;2.97;;;17.30;77.90;;;;;;5064258;28;20025;-61
2022/07/18 05:50:54;;;;;;;6.50;3.22;;;17.40;77.80;;;;;;5054526;28;20044;-61
2022/07/18 05:53:19;;;;;;;4.47;2.35;;;17.50;77.80;;;;;;5063341;28;20473;-61
2022/07/18 05:55:45;;;;;;;6.75;3.15;;;17.50;77.70;;;;;;5080703;28;20033;-61
2022/07/18 05:58:10;;;;;;;5.43;2.33;;;17.60;77.30;;;;;;5068012;28;20052;-61
2022/07/18 06:00:36;;;;;;;6.32;2.70;;;17.70;77.00;;;;;;5067825;28;20029;-61
2022/07/18 06:03:01;;;;;;;5.47;3.00;;;17.70;76.80;;;;;;5072052;28;20366;-61
2022/07/18 06:05:27;;;;;;;4.05;2.20;;;17.80;76.30;;;;;;5069058;28;20031;-61
2022/07/18 06:07:56;;;;;;;5.40;2.67;;;17.90;76.20;;;;;;5065942;28;20025;-61
2022/07/18 06:10:23;;;;;;;7.22;3.03;;;17.90;75.80;;;;;;5055415;28;20044;-61
2022/07/18 06:12:49;;;;;;;5.53;2.20;;;18.00;76.40;;;;;;5050872;28;20025;-61
2022/07/18 06:15:15;;;;;;;6.35;2.10;;;18.10;75.90;;;;;;5050955;28;20025;-61
2022/07/18 06:17:41;;;;;;;4.05;2.17;;;18.20;75.80;;;;;;5060604;28;20377;-61
2022/07/18 06:20:07;;;;;;;3.95;2.40;;;18.20;76.00;;;;;;5066671;28;20021;-61
2022/07/18 06:22:34;;;;;;;4.78;2.33;;;18.30;76.00;;;;;;5060142;28;20196;-61
2022/07/18 06:25:00;;;;;;;4.13;2.20;;;18.50;76.00;;;;;;5057494;28;20096;-61
2022/07/18 06:27:25;;;;;;;4.00;2.03;;;18.60;75.30;;;;;;5063828;28;20107;-61
2022/07/18 06:29:51;;;;;;;6.38;2.38;;;18.70;74.60;;;;;;5062463;28;20029;-61
2022/07/18 06:32:16;;;;;;;5.63;2.08;;;18.80;74.00;;;;;;5051347;28;20020;-61
2022/07/18 06:34:42;;;;;;;4.93;2.03;;;19.00;74.30;;;;;;5060790;28;20098;-61
2022/07/18 06:37:08;;;;;;;3.00;1.83;;;19.20;73.30;;;;;;5058178;28;20094;-61
2022/07/18 06:39:33;;;;;;;4.15;2.30;;;19.20;73.20;;;;;;5055894;28;20060;-61
2022/07/18 06:41:59;;;;;;;5.13;2.50;;;19.40;72.00;;;;;;5061710;28;20076;-61
2022/07/18 06:44:24;;;;;;;5.43;2.45;;;19.50;72.40;;;;;;5060400;28;20032;-61
2022/07/18 06:46:51;;;;;;;3.25;2.00;;;19.70;70.90;;;;;;5086642;28;20562;-61
2022/07/18 06:49:53;;;;;;;3.65;2.30;;;19.80;70.30;;;;;;5071956;28;20021;-61
2022/07/18 06:52:39;;;;;;;6.35;2.60;;;19.90;70.50;;;;;;5069724;28;20032;-61
2022/07/18 06:55:05;;;;;;;7.32;2.85;;;19.90;70.60;;;;;;5054573;28;20554;-61
2022/07/18 06:57:31;;;;;;;5.95;3.30;;;20.00;70.10;;;;;;5057738;28;20033;-61
2022/07/18 06:59:56;;;;;;;5.28;2.50;;;20.10;69.70;;;;;;5074675;28;20040;-61
2022/07/18 07:02:22;;;;;;;4.72;1.95;;;20.20;70.30;;;;;;5061361;28;20029;-61
2022/07/18 07:04:47;;;;;;;4.57;2.25;;;20.30;70.20;;;;;;5073515;28;20028;-61
2022/07/18 07:07:42;;;;;;;6.20;2.63;;;20.40;70.20;;;;;;5065666;28;20519;-61
2022/07/18 07:10:08;;;;;;;5.78;2.47;;;20.50;70.70;;;;;;5064804;28;20068;-61
2022/07/18 07:12:45;;;;;;;4.40;1.90;;;20.60;70.00;;;;;;5067173;28;20499;-61
2022/07/18 07:15:11;;;;;;;6.18;2.05;;;20.70;69.30;;;;;;5067757;28;20030;-61
2022/07/18 07:17:37;;;;;;;7.78;2.83;;;20.70;68.70;;;;;;5070301;28;20012;-61
2022/07/18 07:20:07;;;;;;;6.43;2.50;;;20.80;67.60;;;;;;5069196;28;20435;-61
2022/07/18 07:22:41;;;;;;;6.70;2.55;;;20.90;67.40;;;;;;5068025;28;20087;-61
2022/07/18 07:25:07;;;;;;;6.20;2.47;;;21.00;66.90;;;;;;5066396;28;20021;-62
2022/07/18 07:27:33;;;;;;;5.07;2.33;;;21.10;66.90;;;;;;5060672;28;20493;-62
2022/07/18 07:29:58;;;;;;;7.32;2.75;;;21.30;66.80;;;;;;5059357;28;20100;-61
2022/07/18 07:33:05;;;;;;;;;;;;;;;;;;;;;
2022/07/18 07:35:20;;;;;;;8.13;3.40;;;21.40;66.20;;;;;;5063084;28;20032;-61
2022/07/18 07:37:48;;;;;;;7.88;3.85;;;21.60;66.60;;;;;;5056365;28;20101;-61
2022/07/18 07:43:14;;;;;;;6.63;3.63;;;21.90;65.30;;;;;;5049430;28;20035;-61
2022/07/18 07:57:19;;;;;;;6.43;3.33;;;22.40;63.80;;;;;;4861462;29;20537;-61
2022/07/18 08:00:28;;;;;;;5.32;3.28;;;22.60;62.90;;;;;;4864207;29;20044;-61
2022/07/18 08:02:57;;;;;;;8.75;3.30;;;22.70;63.10;;;;;;4888798;29;20077;-61
2022/07/18 08:05:24;;;;;;;5.88;3.30;;;22.70;62.60;;;;;;4889468;29;20216;-61
2022/07/18 08:07:49;;;;;;;5.57;2.80;;;22.80;62.20;;;;;;5028148;28;20142;-61
2022/07/18 08:10:15;;;;;;;5.25;2.45;;;22.90;62.30;;;;;;5072361;28;20476;-61
2022/07/18 08:12:42;;;;;;;4.18;2.38;;;23.00;62.40;;;;;;5072997;28;20075;-62
2022/07/18 08:15:08;;;;;;;6.07;2.25;;;23.10;62.30;;;;;;5054264;28;20540;-62
2022/07/18 08:17:37;;;;;;;4.15;2.00;;;23.20;62.20;;;;;;5065420;28;20016;-61
2022/07/18 08:20:03;;;;;;;4.05;1.60;;;23.30;62.00;;;;;;5072944;28;20082;-62
2022/07/18 08:22:29;;;;;;;2.17;1.20;;;23.40;62.20;;;;;;5069725;28;20059;-62
2022/07/18 08:24:54;;;;;;;3.55;2.20;;;23.40;62.50;;;;;;5078878;28;20060;-61
2022/07/18 08:27:20;;;;;;;3.17;1.60;;;23.50;61.40;;;;;;5068574;28;20025;-61
2022/07/18 08:29:45;;;;;;;4.13;1.55;;;23.60;61.50;;;;;;5088502;28;20042;-61
2022/07/18 08:32:13;;;;;;;6.40;2.15;;;23.70;61.40;;;;;;5068482;28;20025;-62
2022/07/18 08:34:38;;;;;;;6.32;2.63;;;23.80;61.00;;;;;;5067564;28;20025;-61
2022/07/18 08:37:04;;;;;;;4.97;1.88;;;23.90;59.50;;;;;;5068101;28;20035;-62
2022/07/18 08:39:29;;;;;;;4.53;1.85;;;24.00;58.70;;;;;;5068357;28;20100;-61
2022/07/18 08:41:57;;;;;;;5.18;2.15;;;24.10;58.70;;;;;;5058866;28;20451;-61
2022/07/18 08:44:23;;;;;;;5.07;2.17;;;24.20;58.10;;;;;;5066743;28;20035;-62
2022/07/18 08:46:53;;;;;;;3.28;1.88;;;24.30;57.20;;;;;;5063078;28;20473;-62
2022/07/18 08:49:20;;;;;;;5.78;2.33;;;24.40;57.10;;;;;;5055215;28;20012;-61
2022/07/18 08:51:46;;;;;;;6.05;3.20;;;24.50;56.90;;;;;;5072604;28;20473;-61
2022/07/18 08:54:12;;;;;;;4.20;2.60;;;24.70;55.30;;;;;;5075784;28;20031;-61
2022/07/18 08:56:38;;;;;;;6.53;2.80;;;24.80;55.10;;;;;;5078315;28;20028;-62
2022/07/18 08:59:03;;;;;;;6.18;3.63;;;24.80;55.00;;;;;;5080615;28;20624;-61
2022/07/18 09:01:30;;;;;;;5.32;3.50;;;24.90;54.70;;;;;;5064395;28;20029;-62
2022/07/18 09:06:58;;;;;;;3.40;1.60;;;25.10;53.50;;;;;;5067826;28;20043;-61
2022/07/18 09:09:27;;;;;;;5.15;2.55;;;25.20;53.80;;;;;;5070747;28;20111;-61
2022/07/18 09:11:58;;;;;;;6.25;3.20;;;25.20;53.50;;;;;;5070182;28;20532;-61
2022/07/18 09:17:38;;;;;;;5.60;4.07;;;25.40;53.00;;;;;;5039118;28;20461;-62
2022/07/18 09:20:15;;;;;;;7.63;2.97;;;25.50;53.30;;;;;;5065815;28;20029;-62
2022/07/18 09:22:47;;;;;;;5.40;2.75;;;25.60;53.20;;;;;;5071346;28;20016;-61
2022/07/18 09:25:15;;;;;;;3.95;2.13;;;25.70;53.30;;;;;;5081488;28;20032;-62
2022/07/18 09:27:43;;;;;;;5.07;3.15;;;25.80;53.50;;;;;;5063759;28;20020;-62
2022/07/18 09:30:25;;;;;;;5.88;3.40;;;25.90;52.70;;;;;;5079123;28;20016;-61
2022/07/18 09:33:03;;;;;;;6.05;3.63;;;26.00;52.40;;;;;;5063655;28;20020;-61
2022/07/18 09:35:33;;;;;;;3.17;2.05;;;26.10;51.70;;;;;;5064275;28;20028;-62
2022/07/18 09:38:08;;;;;;;5.57;2.58;;;26.20;51.60;;;;;;5067219;28;20465;-62
2022/07/18 09:40:43;;;;;;;3.45;2.08;;;26.40;50.50;;;;;;5063944;28;20029;-62
2022/07/18 09:43:11;;;;;;;2.20;1.30;;;26.40;49.90;;;;;;5071897;28;20021;-62
2022/07/18 09:45:49;;;;;;;4.75;2.40;;;26.60;50.40;;;;;;5056817;28;20552;-61
2022/07/18 09:48:24;;;;;;;3.45;2.58;;;26.70;49.20;;;;;;5057465;28;20020;-62
2022/07/18 09:50:53;;;;;;;5.75;2.55;;;26.70;49.50;;;;;;5055408;28;20025;-62
2022/07/18 09:53:24;;;;;;;2.70;1.55;;;26.90;49.30;;;;;;5065005;28;20021;-62
2022/07/18 09:55:55;;;;;;;2.53;1.40;;;27.00;49.20;;;;;;5070663;28;20064;-62
2022/07/18 09:58:27;;;;;;;5.57;2.50;;;27.10;49.60;;;;;;5064757;28;20046;-62
2022/07/18 10:00:54;;;;;;;4.03;1.80;;;27.20;48.70;;;;;;5057531;28;20440;-62
2022/07/18 10:03:21;;;;;;;4.90;2.03;;;27.30;48.40;;;;;;5054958;28;20500;-62
2022/07/18 10:05:49;;;;;;;2.60;1.52;;;27.30;48.60;;;;;;5072295;28;20069;-62
2022/07/18 10:08:21;;;;;;;4.65;1.92;;;27.40;48.40;;;;;;5064444;28;20016;-62
2022/07/18 10:10:49;;;;;;;4.53;2.15;;;27.50;47.60;;;;;;5070129;28;20032;-62
2022/07/18 10:16:18;;;;;;;5.00;2.33;;;27.70;47.30;;;;;;5027569;28;20104;-62
2022/07/18 10:18:43;;;;;;;4.57;2.22;;;27.90;47.10;;;;;;5070740;28;20067;-62
2022/07/18 10:21:14;;;;;;;4.15;2.30;;;28.00;46.90;;;;;;5086197;28;20021;-62
2022/07/18 10:23:43;;;;;;;4.07;1.50;;;28.00;46.70;;;;;;5068614;28;20029;-62
2022/07/18 10:26:18;;;;;;;5.38;2.78;;;28.20;47.30;;;;;;5055860;28;20013;-62
2022/07/18 10:29:05;;;;;;;4.95;1.50;;;28.30;46.10;;;;;;5056194;28;20112;-62
2022/07/18 10:31:38;;;;;;;6.35;2.53;;;28.40;46.70;;;;;;5074124;28;20395;-62
2022/07/18 10:34:07;;;;;;;2.80;1.50;;;28.50;45.50;;;;;;5069668;28;20029;-62
2022/07/18 10:36:36;;;;;;;5.47;2.00;;;28.50;45.90;;;;;;5083648;28;20020;-62
2022/07/18 10:39:21;;;;;;;2.97;2.45;;;28.60;45.80;;;;;;5056247;28;20125;-62
2022/07/18 10:41:46;;;;;;;2.50;1.75;;;28.60;45.30;;;;;;5071521;28;20036;-62
2022/07/18 10:44:30;;;;;;;2.83;1.00;;;28.50;45.70;;;;;;5055601;28;20028;-62
2022/07/18 10:47:23;;;;;;;2.85;1.27;;;28.50;46.00;;;;;;5075048;28;20021;-62
2022/07/18 10:49:52;;;;;;;3.03;1.25;;;28.60;46.20;;;;;;5074943;28;20024;-62
2022/07/18 10:55:21;;;;;;;3.85;1.25;;;28.90;45.50;;;;;;5074182;28;20036;-62
2022/07/18 10:57:49;;;;;;;2.40;1.17;;;29.00;45.10;;;;;;5062176;28;20064;-62
2022/07/18 11:00:22;;;;;;;1.95;0.88;;;29.10;45.20;;;;;;5069692;28;20025;-62
2022/07/18 11:03:00;;;;;;;4.32;0.98;;;29.20;45.10;;;;;;5066323;28;20025;-62
2022/07/18 11:05:26;;;;;;;4.18;1.23;;;29.40;45.10;;;;;;5068931;28;20024;-62
2022/07/18 11:07:57;;;;;;;3.00;1.35;;;29.60;45.10;;;;;;5068517;28;20498;-62
2022/07/18 11:10:57;;;;;;;2.00;1.10;;;29.70;44.60;;;;;;5068079;28;20035;-62
2022/07/18 11:13:29;;;;;;;3.10;1.20;;;29.90;44.10;;;;;;5062706;28;20464;-62
2022/07/18 11:16:43;;;;;;;4.90;1.00;;;30.00;44.60;;;;;;5085817;28;20029;-62
2022/07/18 11:19:09;;;;;;;3.42;1.05;;;30.20;44.30;;;;;;5008589;28;20068;-62
2022/07/18 11:21:34;;;;;;;5.28;1.23;;;30.20;42.90;;;;;;5057192;28;20045;-62
2022/07/18 11:24:09;;;;;;;2.28;1.00;;;30.20;42.00;;;;;;5068410;28;20038;-62
2022/07/18 11:26:43;;;;;;;2.67;1.20;;;30.20;41.80;;;;;;5057333;28;20556;-62
2022/07/18 11:29:11;;;;;;;1.73;0.80;;;30.30;42.30;;;;;;5054238;28;20083;-62
2022/07/18 11:31:45;;;;;;;3.00;0.93;;;30.40;41.10;;;;;;5057847;28;20024;-62
2022/07/18 11:34:11;;;;;;;2.97;1.30;;;30.50;41.60;;;;;;5064784;28;20025;-62
2022/07/18 11:36:40;;;;;;;2.00;1.25;;;30.60;41.60;;;;;;5068914;28;20030;-62
2022/07/18 11:39:06;;;;;;;6.93;1.30;;;30.70;40.70;;;;;;5061533;28;20017;-62
2022/07/18 11:41:51;;;;;;;2.58;1.05;;;30.70;40.80;;;;;;5065255;28;20029;-62
2022/07/18 11:44:21;;;;;;;2.78;1.13;;;30.80;40.90;;;;;;5070989;28;20082;-62
2022/07/18 11:46:47;;;;;;;3.65;1.17;;;30.80;40.90;;;;;;5064276;28;20044;-62
2022/07/18 11:49:12;;;;;;;3.55;0.93;;;30.90;40.10;;;;;;5060606;28;20021;-62
2022/07/18 11:51:41;;;;;;;2.90;0.80;;;31.10;40.90;;;;;;5065655;28;20488;-62
2022/07/18 11:54:08;;;;;;;2.05;0.80;;;31.30;41.30;;;;;;5060694;28;20025;-62
2022/07/18 11:56:46;;;;;;;2.00;1.00;;;31.50;40.60;;;;;;5081813;28;20028;-62
2022/07/18 11:59:11;;;;;;;1.77;0.90;;;31.70;40.40;;;;;;5064144;28;20045;-62
2022/07/18 12:01:37;;;;;;;1.40;0.85;;;31.90;40.60;;;;;;5072832;28;20274;-62
2022/07/18 12:04:03;;;;;;;4.18;0.90;;;32.00;39.80;;;;;;5072163;28;20024;-62
2022/07/18 12:06:28;;;;;;;1.92;0.88;;;32.10;39.00;;;;;;5072779;28;20029;-62
2022/07/18 12:08:56;;;;;;;1.67;0.90;;;32.20;39.30;;;;;;5071980;28;20074;-62
2022/07/18 12:11:34;;;;;;;2.35;0.90;;;32.40;39.70;;;;;;5073702;28;20555;-62
2022/07/18 12:14:08;;;;;;;3.23;0.90;;;32.70;39.60;;;;;;5072567;28;20074;-62
2022/07/18 12:16:40;;;;;;;1.40;0.80;;;32.90;39.40;;;;;;5072058;28;20035;-62
2022/07/18 12:19:24;;;;;;;3.05;1.17;;;33.10;39.20;;;;;;5057407;28;20029;-62
2022/07/18 12:21:55;;;;;;;1.75;1.00;;;33.20;39.30;;;;;;5058890;28;20489;-63
2022/07/18 12:24:25;;;;;;;1.95;1.20;;;33.40;38.90;;;;;;5063452;28;20404;-63
2022/07/18 12:27:07;;;;;;;1.52;0.70;;;33.60;39.00;;;;;;5053591;28;19908;-62
2022/07/18 12:30:02;;;;;;;;;;;;;;;;;;;;;
2022/07/18 12:32:35;;;;;;;1.20;0.80;;;34.00;38.70;;;;;;5067930;28;20021;-63
2022/07/18 12:35:25;;;;;;;2.60;0.98;;;34.10;37.90;;;;;;5069251;28;20055;-63
2022/07/18 12:37:56;;;;;;;5.30;1.20;;;34.00;37.60;;;;;;5079830;28;20028;-63
2022/07/18 12:40:22;;;;;;;1.77;0.70;;;34.10;38.10;;;;;;5057567;28;20048;-63
2022/07/18 12:42:48;;;;;;;1.50;0.90;;;34.30;38.10;;;;;;5068273;28;20083;-63
2022/07/18 12:45:16;;;;;;;2.38;1.13;;;34.50;38.00;;;;;;5053155;28;20474;-63
2022/07/18 12:47:41;;;;;;;2.00;0.90;;;34.60;36.20;;;;;;5068104;28;20143;-63
2022/07/18 12:50:08;;;;;;;1.60;0.80;;;34.60;36.00;;;;;;5071216;28;20662;-63
2022/07/18 12:53:17;;;;;;;2.17;1.00;;;34.60;36.00;;;;;;5071967;28;20111;-63
2022/07/18 12:55:42;;;;;;;1.77;1.10;;;34.60;34.90;;;;;;5059222;28;20033;-63
2022/07/18 12:58:24;;;;;;;1.30;0.82;;;34.80;35.40;;;;;;5067712;28;20385;-63
2022/07/18 13:00:50;;;;;;;1.92;0.80;;;34.80;35.20;;;;;;5065815;28;20021;-63
2022/07/18 13:03:16;;;;;;;1.60;1.00;;;35.00;35.30;;;;;;5069526;28;20020;-63
2022/07/18 13:05:42;;;;;;;2.63;1.50;;;35.00;34.30;;;;;;5055788;28;20083;-63
2022/07/18 13:08:10;;;;;;;1.85;0.93;;;34.90;34.20;;;;;;5069284;28;20077;-63
2022/07/18 13:10:58;;;;;;;;;;;;;;;;;;;;;
2022/07/18 13:16:36;;;;;;;1.80;1.00;;;35.40;34.90;;;;;;5061185;28;20041;-63
2022/07/18 13:19:01;;;;;;;1.90;0.90;;;35.50;34.70;;;;;;5083114;28;20387;-63
2022/07/18 13:21:27;;;;;;;4.25;1.27;;;35.60;34.30;;;;;;5067891;28;20028;-63
2022/07/18 13:23:52;;;;;;;3.58;1.05;;;35.40;34.10;;;;;;5071004;28;20024;-63
2022/07/18 13:26:18;;;;;;;1.40;0.90;;;35.20;34.40;;;;;;5061167;28;20384;-62
2022/07/18 13:28:44;;;;;;;1.55;0.82;;;35.30;34.50;;;;;;5052468;28;20045;-63
2022/07/18 13:31:09;;;;;;;1.60;0.90;;;35.40;34.70;;;;;;5052427;28;20104;-63
2022/07/18 13:33:35;;;;;;;2.92;1.02;;;35.70;34.70;;;;;;5082578;28;20464;-63